Time;durP1;ratioP1;P1;durP2;ratioP2;P2;SDS_P1;SDS_P2;PMS_P1;PMS_P2;Temp;Humidity;BMP_temperature;BMP_pressure;BME280_temperature;BME280_humidity;BME280_pressure;Samples;Min_cycle;Max_cycle;Signal;HPM_P1;HPM_P2
2022/10/22 00:01:13;;;;;;;6.83;3.27;;;;;;;-143.84;70.88;45098.56;5110596;28;20442;-75
2022/10/22 00:03:40;;;;;;;4.43;3.50;;;;;;;-143.84;70.85;45111.91;5110317;28;20443;-75
2022/10/22 00:06:08;;;;;;;6.37;2.73;;;;;;;-143.84;70.51;45104.28;5110242;28;20436;-75
2022/10/22 00:08:35;;;;;;;4.23;2.80;;;;;;;-143.84;70.55;45110.00;5110614;28;20488;-75
2022/10/22 00:11:08;;;;;;;3.63;2.60;;;;;;;-143.84;70.62;45113.81;5110474;28;20458;-75
2022/10/22 00:13:36;;;;;;;3.60;3.27;;;;;;;-143.84;70.76;45121.44;5110561;28;20470;-75
2022/10/22 00:16:03;;;;;;;3.33;3.03;;;;;;;-143.84;70.54;45098.56;5110813;28;21029;-75
2022/10/22 00:18:31;;;;;;;3.77;3.47;;;;;;;-143.84;70.89;45094.78;5110614;28;20468;-75
2022/10/22 00:20:59;;;;;;;5.23;2.70;;;;;;;-143.84;70.74;45132.84;5110477;28;20508;-75
2022/10/22 00:23:26;;;;;;;5.60;2.53;;;;;;;-143.84;70.87;45125.22;5110488;28;20460;-75
2022/10/22 00:25:53;;;;;;;6.90;2.67;;;;;;;-143.84;71.21;45110.00;5110194;28;20518;-75
2022/10/22 00:28:20;;;;;;;2.67;2.47;;;;;;;-143.84;71.87;45127.13;5110509;28;20442;-75
2022/10/22 00:30:48;;;;;;;4.23;2.80;;;;;;;-143.84;71.96;45110.00;5110218;28;20955;-75
2022/10/22 00:33:15;;;;;;;6.00;2.90;;;;;;;-143.84;72.03;45100.47;5110328;28;20552;-75
2022/10/22 00:35:44;;;;;;;3.20;2.40;;;;;;;-143.84;72.22;45115.72;5110169;28;20445;-75
2022/10/22 00:38:12;;;;;;;7.80;2.40;;;;;;;-143.84;72.37;45136.66;5110266;28;20450;-75
2022/10/22 00:40:39;;;;;;;5.83;2.60;;;;;;;-143.84;72.67;45127.13;5110090;28;20442;-75
2022/10/22 00:43:06;;;;;;;2.57;2.37;;;;;;;-143.84;72.85;45100.47;5110106;28;20450;-75
2022/10/22 00:45:33;;;;;;;3.43;2.40;;;;;;;-143.84;73.10;45125.22;5110294;28;20431;-75
2022/10/22 00:48:04;;;;;;;5.20;2.77;;;;;;;-143.84;73.36;45125.22;5109861;28;20466;-75
2022/10/22 00:50:34;;;;;;;12.50;2.90;;;;;;;-143.84;73.71;45115.72;5110500;28;20459;-75
2022/10/22 00:53:04;;;;;;;7.13;2.87;;;;;;;-143.84;73.79;45087.16;5110265;28;20504;-75
2022/10/22 00:55:34;;;;;;;3.33;2.10;;;;;;;-143.84;74.07;45106.19;5112973;28;20498;-75
2022/10/22 00:58:02;;;;;;;4.17;2.40;;;;;;;-143.84;74.23;45098.56;5114713;28;20941;-75
2022/10/22 01:00:29;;;;;;;3.03;2.23;;;;;;;-143.84;74.22;45110.00;5114557;28;20491;-75
2022/10/22 01:02:57;;;;;;;7.70;2.80;;;;;;;-143.84;73.93;45130.94;5114696;28;20442;-75
2022/10/22 01:05:29;;;;;;;8.27;2.93;;;;;;;-143.84;73.79;45108.09;5115003;28;20901;-75
2022/10/22 01:07:56;;;;;;;4.00;2.87;;;;;;;-143.84;73.67;45129.03;5114577;28;20442;-75
2022/10/22 01:10:46;;;;;;;3.73;2.73;;;;;;;-143.84;73.64;45079.53;5114781;28;20434;-75
2022/10/22 01:13:25;;;;;;;3.63;2.73;;;;;;;-143.84;73.67;45136.66;5114145;28;20551;-75
2022/10/22 01:16:00;;;;;;;10.47;2.70;;;;;;;-143.84;73.50;45115.72;5113884;28;20973;-75
2022/10/22 01:18:36;;;;;;;2.30;2.00;;;;;;;-143.84;73.03;45119.53;5113898;28;20511;-75
2022/10/22 01:21:25;;;;;;;3.70;3.40;;;;;;;-143.84;72.82;45077.63;5113866;28;20482;-76
2022/10/22 01:24:22;;;;;;;7.50;2.80;;;;;;;-143.84;72.62;45098.56;5113791;28;20999;-76
2022/10/22 01:27:00;;;;;;;3.67;2.20;;;;;;;-143.84;72.05;45111.91;5103720;28;20447;-76
2022/10/22 01:29:34;;;;;;;2.60;2.40;;;;;;;-143.84;71.82;45144.28;5113931;28;20499;-76
2022/10/22 01:32:04;;;;;;;5.13;2.67;;;;;;;-143.84;71.70;45129.03;5113368;28;20439;-75
2022/10/22 01:34:33;;;;;;;9.23;2.43;;;;;;;-143.84;71.43;45127.13;5112663;28;20528;-74
2022/10/22 01:37:01;;;;;;;4.23;2.10;;;;;;;-143.84;71.31;45098.56;5113022;28;20442;-75
2022/10/22 01:39:31;;;;;;;5.53;2.47;;;;;;;-143.84;71.39;45134.75;5113212;28;20439;-75
2022/10/22 01:41:58;;;;;;;3.30;2.80;;;;;;;-143.84;70.68;45102.38;5112865;28;20438;-75
2022/10/22 01:44:27;;;;;;;2.47;2.27;;;;;;;-143.84;70.74;45119.53;5112809;28;20446;-74
2022/10/22 01:47:05;;;;;;;3.40;2.13;;;;;;;-143.84;70.55;45125.22;5112697;28;20435;-75
2022/10/22 01:49:43;;;;;;;2.93;2.30;;;;;;;-143.84;70.03;45106.19;5111844;28;20474;-74
2022/10/22 01:52:24;;;;;;;2.30;2.03;;;;;;;-143.84;69.95;45123.34;5112025;28;20905;-74
2022/10/22 01:54:57;;;;;;;3.37;3.07;;;;;;;-143.84;69.43;45110.00;5112924;28;20477;-74
2022/10/22 01:57:35;;;;;;;5.10;3.00;;;;;;;-143.84;69.37;45130.94;5112850;28;20496;-74
2022/10/22 02:00:07;;;;;;;4.37;2.50;;;;;;;-143.84;69.38;45098.56;5113199;28;20511;-75
2022/10/22 02:02:42;;;;;;;2.33;1.73;;;;;;;-143.84;69.23;45117.63;5112755;28;20936;-74
2022/10/22 02:05:14;;;;;;;2.50;2.30;;;;;;;-143.84;68.35;45096.66;5112846;28;20450;-74
2022/10/22 02:07:47;;;;;;;3.80;2.13;;;;;;;-143.84;68.31;45104.28;5111803;28;21015;-74
2022/10/22 02:10:15;;;;;;;3.20;2.40;;;;;;;-143.84;67.88;45119.53;5112274;28;20862;-75
2022/10/22 02:12:46;;;;;;;4.37;2.20;;;;;;;-143.84;68.30;45106.19;5112463;28;20432;-74
2022/10/22 02:15:15;;;;;;;2.37;2.17;;;;;;;-143.84;68.26;45117.63;5112606;28;20489;-74
2022/10/22 02:17:47;;;;;;;8.10;2.83;;;;;;;-143.84;68.13;45108.09;5112294;28;20503;-74
2022/10/22 02:20:18;;;;;;;2.90;2.63;;;;;;;-143.84;68.33;45115.72;5112263;28;20874;-75
2022/10/22 02:22:46;;;;;;;3.73;2.40;;;;;;;-143.84;67.96;45106.19;5112145;28;20862;-74
2022/10/22 02:25:14;;;;;;;2.00;1.90;;;;;;;-143.84;68.19;45125.22;5112244;28;20519;-75
2022/10/22 02:27:45;;;;;;;5.60;2.30;;;;;;;-143.84;67.60;45123.34;5112226;28;20499;-74
2022/10/22 02:30:15;;;;;;;5.47;2.60;;;;;;;-143.84;67.72;45121.44;5112117;28;20450;-75
2022/10/22 02:32:50;;;;;;;3.00;2.23;;;;;;;-143.84;67.63;45123.34;5111985;28;20450;-75
2022/10/22 02:35:22;;;;;;;5.50;2.60;;;;;;;-143.84;67.24;45123.34;5112009;28;20528;-75
2022/10/22 02:37:50;;;;;;;2.27;2.07;;;;;;;-143.84;66.89;45096.66;5112011;28;20506;-75
2022/10/22 02:40:18;;;;;;;2.87;2.53;;;;;;;-143.84;66.74;45111.91;5111973;28;20512;-75
2022/10/22 02:42:49;;;;;;;2.00;1.90;;;;;;;-143.84;66.67;45127.13;5112077;28;20962;-74
2022/10/22 02:45:17;;;;;;;4.13;2.50;;;;;;;-143.84;66.41;45140.47;5111542;28;20456;-75
2022/10/22 02:47:46;;;;;;;8.33;2.33;;;;;;;-143.84;66.30;45117.63;5111282;28;20476;-75
2022/10/22 02:50:14;;;;;;;2.63;2.30;;;;;;;-143.84;66.09;45132.84;5111775;28;20448;-75
2022/10/22 02:52:41;;;;;;;11.70;2.60;;;;;;;-143.84;65.85;45129.03;5111880;28;20473;-75
2022/10/22 02:55:09;;;;;;;2.80;2.23;;;;;;;-143.84;65.91;45115.72;5111598;28;20478;-74
2022/10/22 02:57:36;;;;;;;5.50;2.80;;;;;;;-143.84;65.48;45098.56;5111476;28;20451;-75
2022/10/22 03:00:05;;;;;;;2.60;2.40;;;;;;;-143.84;65.03;45132.84;5111761;28;20434;-74
2022/10/22 03:02:32;;;;;;;2.70;2.10;;;;;;;-143.84;64.93;45115.72;5111443;28;20503;-75
2022/10/22 03:05:01;;;;;;;3.37;2.10;;;;;;;-143.84;64.76;45104.28;5111543;28;20507;-75
2022/10/22 03:07:28;;;;;;;13.23;2.50;;;;;;;-143.84;64.78;45117.63;5111489;28;21237;-75
2022/10/22 03:09:56;;;;;;;6.87;3.30;;;;;;;-143.84;64.51;45102.38;5111241;28;20443;-75
2022/10/22 03:12:23;;;;;;;4.40;3.30;;;;;;;-143.84;63.76;45110.00;5111412;28;21333;-75
2022/10/22 03:14:50;;;;;;;3.03;2.73;;;;;;;-143.84;63.51;45108.09;5110821;28;20473;-75
2022/10/22 03:17:18;;;;;;;4.80;3.40;;;;;;;-143.84;63.31;45117.63;5111647;28;20439;-75
2022/10/22 03:19:46;;;;;;;7.00;3.47;;;;;;;-143.84;63.21;45085.25;5111298;28;20508;-75
2022/10/22 03:22:21;;;;;;;3.20;2.17;;;;;;;-143.84;63.21;45119.53;5111223;28;20442;-75
2022/10/22 03:24:52;;;;;;;3.00;2.53;;;;;;;-143.84;63.08;45090.97;5111308;28;20510;-75
2022/10/22 03:27:22;;;;;;;2.57;2.37;;;;;;;-143.84;62.92;45104.28;5111188;28;20861;-75
2022/10/22 03:29:51;;;;;;;2.67;2.47;;;;;;;-143.84;63.17;45111.91;5093474;28;20456;-75
2022/10/22 03:32:19;;;;;;;7.13;2.50;;;;;;;-143.84;62.66;45117.63;5090765;28;20933;-74
2022/10/22 03:34:46;;;;;;;2.60;2.40;;;;;;;-143.84;62.56;45094.78;5090753;28;20817;-74
2022/10/22 03:37:15;;;;;;;4.20;2.80;;;;;;;-143.84;62.36;45121.44;5090633;28;20500;-74
2022/10/22 03:39:42;;;;;;;6.10;2.70;;;;;;;-143.84;62.72;45129.03;5090407;28;20524;-75
2022/10/22 03:42:09;;;;;;;4.40;3.50;;;;;;;-143.84;62.94;45108.09;5090517;28;20454;-75
2022/10/22 03:44:38;;;;;;;2.97;2.77;;;;;;;-143.84;62.90;45119.53;5090593;28;20447;-74
2022/10/22 03:47:06;;;;;;;4.50;3.23;;;;;;;-143.84;63.63;45104.28;5090235;28;20462;-74
2022/10/22 03:49:33;;;;;;;3.20;3.00;;;;;;;-143.84;64.14;45110.00;5090433;28;20475;-75
2022/10/22 03:52:06;;;;;;;9.37;3.00;;;;;;;-143.84;65.22;45106.19;5090964;28;20446;-74
2022/10/22 03:54:35;;;;;;;5.83;3.00;;;;;;;-143.84;65.45;45125.22;5090449;28;20474;-74
2022/10/22 03:57:03;;;;;;;5.33;3.20;;;;;;;-143.84;65.96;45100.47;5090433;28;20533;-75
2022/10/22 03:59:35;;;;;;;9.00;2.90;;;;;;;-143.84;65.96;45142.38;5090202;28;20450;-75
2022/10/22 04:02:02;;;;;;;4.93;2.93;;;;;;;-143.84;65.84;45119.53;5090169;28;20442;-75
2022/10/22 04:04:30;;;;;;;5.30;2.87;;;;;;;-143.84;65.83;45119.53;5090475;28;20512;-74
2022/10/22 04:06:57;;;;;;;6.97;3.43;;;;;;;-143.84;64.91;45123.34;5090102;28;20469;-75
2022/10/22 04:09:24;;;;;;;5.80;2.93;;;;;;;-143.84;64.37;45121.44;5090296;28;21004;-75
2022/10/22 04:11:52;;;;;;;4.20;3.13;;;;;;;-143.84;63.89;45125.22;5090636;28;20448;-74
2022/10/22 04:14:20;;;;;;;6.97;2.90;;;;;;;-143.84;63.98;45144.28;5090237;28;20882;-74
2022/10/22 04:16:47;;;;;;;2.37;2.17;;;;;;;-143.84;64.22;45106.19;5090346;28;20503;-75
2022/10/22 04:19:14;;;;;;;3.70;3.13;;;;;;;-143.84;64.08;45098.56;5090139;28;20435;-74
2022/10/22 04:21:41;;;;;;;5.27;3.03;;;;;;;-143.84;63.62;45113.81;5089876;28;20480;-74
2022/10/22 04:24:08;;;;;;;3.60;3.20;;;;;;;-143.84;62.60;45106.19;5089940;28;20512;-74
2022/10/22 04:26:36;;;;;;;6.40;2.80;;;;;;;-143.84;62.29;45132.84;5089991;28;20468;-74
2022/10/22 04:29:07;;;;;;;7.27;2.70;;;;;;;-143.84;62.17;45127.13;5090354;28;20442;-74
2022/10/22 04:31:34;;;;;;;2.40;2.20;;;;;;;-143.84;62.31;45142.38;5094203;28;20438;-75
2022/10/22 04:34:01;;;;;;;3.10;2.70;;;;;;;-143.84;62.39;45138.56;5093561;28;20519;-74
2022/10/22 04:36:29;;;;;;;3.57;2.43;;;;;;;-143.84;62.16;45117.63;5094069;28;20451;-74
2022/10/22 04:38:57;;;;;;;7.63;4.07;;;;;;;-143.84;61.99;45110.00;5092978;28;20443;-73
2022/10/22 04:41:27;;;;;;;8.83;3.90;;;;;;;-143.84;62.06;45094.78;5093415;28;20443;-75
2022/10/22 04:43:55;;;;;;;7.13;3.50;;;;;;;-143.84;62.96;45127.13;5089122;28;20494;-76
2022/10/22 04:46:25;;;;;;;6.03;3.50;;;;;;;-143.84;62.45;45106.19;5073668;28;20942;-74
2022/10/22 04:48:52;;;;;;;4.60;4.10;;;;;;;-143.84;62.41;45102.38;5074080;28;20576;-74
2022/10/22 04:51:22;;;;;;;5.80;4.00;;;;;;;-143.84;62.12;45121.44;5073411;28;20514;-75
2022/10/22 04:53:49;;;;;;;5.00;3.77;;;;;;;-143.84;62.36;45115.72;5073313;28;20995;-73
2022/10/22 04:56:19;;;;;;;6.23;3.83;;;;;;;-143.84;62.46;45129.03;5073289;28;20476;-75
2022/10/22 04:58:47;;;;;;;10.17;3.47;;;;;;;-143.84;62.12;45132.84;5072622;28;20976;-76
2022/10/22 05:01:18;;;;;;;3.37;3.17;;;;;;;-143.84;61.94;45092.88;5072937;28;21031;-74
2022/10/22 05:03:48;;;;;;;9.23;4.10;;;;;;;-143.84;61.89;45127.13;5072768;28;20436;-74
2022/10/22 05:06:16;;;;;;;4.80;3.00;;;;;;;-143.84;61.74;45129.03;5072847;28;20453;-74
2022/10/22 05:08:43;;;;;;;9.80;4.37;;;;;;;-143.84;61.89;45104.28;5072793;28;20496;-74
2022/10/22 05:11:14;;;;;;;12.80;4.43;;;;;;;-143.84;61.63;45111.91;5072541;28;20512;-74
2022/10/22 05:13:41;;;;;;;13.90;3.90;;;;;;;-143.84;61.78;45115.72;5072403;28;20455;-74
2022/10/22 05:16:09;;;;;;;7.13;3.53;;;;;;;-143.84;62.08;45102.38;5072635;28;20475;-74
2022/10/22 05:18:37;;;;;;;4.87;3.40;;;;;;;-143.84;62.00;45125.22;5072348;28;20437;-74
2022/10/22 05:21:09;;;;;;;15.07;3.50;;;;;;;-143.84;61.63;45100.47;5072512;28;20433;-74
2022/10/22 05:23:36;;;;;;;7.93;3.93;;;;;;;-143.84;61.99;45123.34;5072599;28;20534;-75
2022/10/22 05:26:04;;;;;;;5.10;3.80;;;;;;;-143.84;61.52;45127.13;5081481;28;20443;-74
2022/10/22 05:28:31;;;;;;;5.27;3.33;;;;;;;-143.84;61.18;45110.00;5092829;28;20432;-74
2022/10/22 05:31:00;;;;;;;6.50;3.10;;;;;;;-143.84;61.11;45123.34;5092851;28;20859;-74
2022/10/22 05:33:27;;;;;;;5.20;3.27;;;;;;;-143.84;61.00;45110.00;5092227;28;20440;-74
2022/10/22 05:35:55;;;;;;;6.23;3.50;;;;;;;-143.84;61.15;45085.25;5091895;28;20471;-74
2022/10/22 05:38:25;;;;;;;5.50;4.10;;;;;;;-143.84;61.03;45121.44;5092037;28;21219;-74
2022/10/22 05:41:00;;;;;;;6.93;3.00;;;;;;;-143.84;59.88;45123.34;5090115;28;20440;-73
2022/10/22 05:43:27;;;;;;;5.57;3.60;;;;;;;-143.84;59.03;45085.25;5083062;28;20441;-74
2022/10/22 05:45:55;;;;;;;9.47;3.30;;;;;;;-143.84;57.87;45104.28;5084033;28;20827;-74
2022/10/22 05:48:22;;;;;;;5.73;3.50;;;;;;;-143.84;56.34;45079.53;5084993;28;20524;-74
2022/10/22 05:50:50;;;;;;;7.60;3.40;;;;;;;-143.84;55.58;45090.97;5074932;28;20487;-74
2022/10/22 05:53:18;;;;;;;4.33;2.70;;;;;;;-143.84;55.20;45081.44;5084519;28;21041;-74
2022/10/22 05:55:47;;;;;;;9.20;2.83;;;;;;;-143.84;55.01;45083.34;5070757;28;20477;-74
2022/10/22 05:58:15;;;;;;;4.80;2.97;;;;;;;-143.84;53.55;45090.97;5071520;28;20920;-74
2022/10/22 06:00:42;;;;;;;7.20;2.70;;;;;;;-143.84;52.78;45110.00;5071580;28;21067;-75
2022/10/22 06:03:09;;;;;;;10.43;3.20;;;;;;;-143.84;52.63;45092.88;5071253;28;20433;-74
2022/10/22 06:05:37;;;;;;;4.10;2.80;;;;;;;-143.84;51.39;45098.56;5071304;28;20496;-74
2022/10/22 06:08:05;;;;;;;11.60;3.33;;;;;;;-143.84;51.45;45104.28;5071662;28;20452;-74
2022/10/22 06:10:33;;;;;;;8.47;2.53;;;;;;;-143.84;50.28;45071.91;5071181;28;20433;-74
2022/10/22 06:13:02;;;;;;;3.83;2.50;;;;;;;-143.84;50.52;45075.72;5071453;28;20436;-75
2022/10/22 06:15:29;;;;;;;7.23;2.57;;;;;;;-143.84;49.92;45079.53;5071267;28;20466;-75
2022/10/22 06:17:56;;;;;;;9.97;3.13;;;;;;;-143.84;48.63;45071.91;5071669;28;20437;-74
2022/10/22 06:20:23;;;;;;;2.53;2.20;;;;;;;-143.84;48.71;45071.91;5071127;28;20442;-74
2022/10/22 06:22:51;;;;;;;7.80;3.37;;;;;;;-143.84;48.94;45077.63;5070955;28;20916;-74
2022/10/22 06:25:18;;;;;;;8.70;3.13;;;;;;;-143.84;49.10;45087.16;5070090;28;20443;-74
2022/10/22 06:27:50;;;;;;;7.40;2.70;;;;;;;-143.84;48.16;45071.91;5076728;28;20485;-74
2022/10/22 06:30:19;;;;;;;3.23;2.90;;;;;;;-143.84;47.30;45073.81;5091509;28;20430;-74
2022/10/22 06:32:46;;;;;;;3.37;3.10;;;;;;;-143.84;47.69;45094.78;5091017;28;20454;-74
2022/10/22 06:35:13;;;;;;;6.70;2.63;;;;;;;-143.84;47.36;45062.41;5090924;28;21309;-74
2022/10/22 06:37:40;;;;;;;3.00;2.50;;;;;;;-143.84;48.00;45064.31;5090846;28;20445;-74
2022/10/22 06:40:09;;;;;;;3.50;2.90;;;;;;;-143.84;47.72;45085.25;5090414;28;20986;-74
2022/10/22 06:42:37;;;;;;;4.20;2.50;;;;;;;-143.84;47.82;45087.16;5090673;28;20905;-74
2022/10/22 06:45:05;;;;;;;2.70;2.50;;;;;;;-143.84;47.75;45102.38;5089978;28;20474;-74
2022/10/22 06:47:33;;;;;;;7.07;3.10;;;;;;;-143.84;46.72;45102.38;5090628;28;20464;-74
2022/10/22 06:50:01;;;;;;;2.97;2.70;;;;;;;-143.84;46.61;45071.91;5111261;28;20489;-74
2022/10/22 06:52:28;;;;;;;10.40;3.00;;;;;;;-143.84;46.45;45087.16;5110464;28;20438;-74
2022/10/22 06:54:55;;;;;;;3.57;2.70;;;;;;;-143.84;46.52;45085.25;5110680;28;20490;-74
2022/10/22 06:57:22;;;;;;;2.50;2.30;;;;;;;-143.84;46.26;45083.34;5110985;28;20438;-74
2022/10/22 06:59:49;;;;;;;2.37;2.17;;;;;;;-143.84;45.96;45071.91;5111057;28;20502;-74
2022/10/22 07:02:16;;;;;;;2.60;2.40;;;;;;;-143.84;45.10;45056.69;5111270;28;20444;-74
2022/10/22 07:04:46;;;;;;;3.27;2.90;;;;;;;-143.84;45.25;45081.44;5110879;28;20520;-74
2022/10/22 07:07:13;;;;;;;8.50;2.40;;;;;;;-143.84;45.17;45079.53;5110625;28;20439;-74
2022/10/22 07:09:44;;;;;;;7.47;3.03;;;;;;;-143.84;44.37;45073.81;5110168;28;20439;-74
2022/10/22 07:12:11;;;;;;;6.80;2.77;;;;;;;-143.84;43.97;45064.31;5110626;28;20428;-74
2022/10/22 07:14:38;;;;;;;5.97;3.00;;;;;;;-143.84;43.87;45113.81;5110353;28;20443;-74
2022/10/22 07:17:06;;;;;;;3.20;2.17;;;;;;;-143.84;43.60;45098.56;5110436;28;20483;-74
2022/10/22 07:19:33;;;;;;;2.50;2.30;;;;;;;-143.84;43.26;45060.50;5110904;28;20789;-74
2022/10/22 07:22:01;;;;;;;5.33;2.40;;;;;;;-143.84;43.13;45089.06;5110587;28;20874;-74
2022/10/22 07:24:29;;;;;;;3.80;2.87;;;;;;;-143.84;43.29;45056.69;5110213;28;20531;-74
2022/10/22 07:26:56;;;;;;;4.97;2.20;;;;;;;-143.84;43.08;45083.34;5110455;28;20508;-74
2022/10/22 07:29:24;;;;;;;7.07;2.43;;;;;;;-143.84;42.11;45058.59;5110391;28;20443;-74
2022/10/22 07:31:51;;;;;;;5.20;2.60;;;;;;;-143.84;42.13;45075.72;5110736;28;20854;-74
2022/10/22 07:34:18;;;;;;;4.80;3.30;;;;;;;-143.84;42.12;45054.78;5110311;28;21298;-74
2022/10/22 07:36:45;;;;;;;4.13;2.90;;;;;;;-143.84;42.08;45079.53;5109660;28;20467;-75
2022/10/22 07:39:14;;;;;;;12.93;2.53;;;;;;;-143.84;42.20;45047.16;5109983;28;20426;-74
2022/10/22 07:41:41;;;;;;;4.30;2.77;;;;;;;-143.84;42.11;45066.22;5105219;28;20435;-74
2022/10/22 07:44:08;;;;;;;3.00;2.20;;;;;;;-143.84;42.72;45081.44;5069831;28;20434;-74
2022/10/22 07:46:35;;;;;;;7.43;3.23;;;;;;;-143.84;44.04;45081.44;5069608;28;20931;-74
2022/10/22 07:49:02;;;;;;;6.97;2.70;;;;;;;-143.84;44.14;45071.91;5082151;28;20534;-74
2022/10/22 07:51:30;;;;;;;5.20;2.50;;;;;;;-143.84;43.85;45066.22;5089528;28;20447;-72
2022/10/22 07:53:57;;;;;;;9.90;2.90;;;;;;;-143.84;44.04;45087.16;5088972;28;20435;-75
2022/10/22 07:56:26;;;;;;;8.30;2.63;;;;;;;-143.84;43.36;45047.16;5090002;28;20488;-75
2022/10/22 07:58:53;;;;;;;5.63;2.53;;;;;;;-143.84;42.11;45056.69;5089765;28;21136;-74
2022/10/22 08:01:21;;;;;;;4.43;2.40;;;;;;;-143.84;43.14;45064.31;5089616;28;20503;-74
2022/10/22 08:03:48;;;;;;;2.60;2.40;;;;;;;-143.84;43.09;45075.72;5089153;28;20502;-72
2022/10/22 08:06:16;;;;;;;2.87;2.57;;;;;;;-143.84;43.25;45052.88;5089484;28;20533;-74
2022/10/22 08:08:45;;;;;;;8.40;2.60;;;;;;;-143.84;41.57;45026.22;5089022;28;20525;-74
2022/10/22 08:11:12;;;;;;;3.17;2.40;;;;;;;-143.84;42.23;45056.69;5089484;28;20602;-74
2022/10/22 08:13:41;;;;;;;12.43;2.77;;;;;;;-143.84;42.73;45028.13;5089363;28;20465;-73
2022/10/22 08:16:08;;;;;;;10.40;2.87;;;;;;;-143.84;42.32;45030.03;5089250;28;20540;-74
2022/10/22 08:18:37;;;;;;;4.00;2.30;;;;;;;-143.84;42.04;45049.06;5089702;28;20431;-74
2022/10/22 08:21:04;;;;;;;7.30;3.00;;;;;;;-143.84;41.91;45043.34;5089185;28;20471;-74
2022/10/22 08:23:33;;;;;;;9.50;3.07;;;;;;;-143.84;42.78;45068.13;5088676;28;20441;-74
2022/10/22 08:26:01;;;;;;;3.97;2.83;;;;;;;-143.84;41.74;45060.50;5088973;28;20443;-74
2022/10/22 08:28:31;;;;;;;4.40;2.50;;;;;;;-143.84;41.53;45031.94;5089107;28;20491;-74
2022/10/22 08:31:00;;;;;;;11.00;3.23;;;;;;;-143.84;41.02;45062.41;5089858;28;20442;-74
2022/10/22 08:33:27;;;;;;;4.47;2.73;;;;;;;-143.84;41.53;45041.44;5090180;28;21002;-74
2022/10/22 08:35:55;;;;;;;8.77;3.20;;;;;;;-143.84;41.15;45071.91;5089801;28;20478;-74
2022/10/22 08:38:22;;;;;;;5.70;3.20;;;;;;;-143.84;40.11;45075.72;5089584;28;20511;-74
2022/10/22 08:40:53;;;;;;;10.10;2.73;;;;;;;-143.84;40.40;45052.88;5089150;28;20439;-74
2022/10/22 08:43:59;;;;;;;5.30;2.90;;;;;;;-143.84;40.83;45028.13;5089637;28;20433;-74
2022/10/22 08:46:44;;;;;;;2.63;2.43;;;;;;;-143.84;39.94;45064.31;5089573;28;20499;-74
2022/10/22 08:49:17;;;;;;;5.00;3.20;;;;;;;-143.84;40.78;45049.06;5070868;28;20495;-74
2022/10/22 08:51:44;;;;;;;8.63;3.10;;;;;;;-143.84;42.44;45047.16;5069156;28;20513;-74
2022/10/22 08:54:21;;;;;;;3.90;3.50;;;;;;;-143.84;41.63;45049.06;5069162;28;20459;-74
2022/10/22 08:57:04;;;;;;;3.93;2.67;;;;;;;-143.84;40.39;45033.84;5069069;28;20482;-74
2022/10/22 08:59:42;;;;;;;2.93;2.50;;;;;;;-143.84;41.04;45056.69;5069385;28;20442;-74
2022/10/22 09:02:23;;;;;;;16.60;3.37;;;;;;;-143.84;39.40;45071.91;5069269;28;20476;-74
2022/10/22 09:04:59;;;;;;;10.00;2.60;;;;;;;-143.84;39.56;45026.22;5068776;28;20451;-74
2022/10/22 09:07:26;;;;;;;9.77;3.67;;;;;;;-143.84;40.05;45052.88;5069241;28;20499;-74
2022/10/22 09:09:57;;;;;;;9.30;3.23;;;;;;;-143.84;39.69;45056.69;5069312;28;20490;-74
2022/10/22 09:12:27;;;;;;;4.43;3.37;;;;;;;-143.84;40.12;45045.25;5069488;28;20444;-74
2022/10/22 09:14:54;;;;;;;4.20;3.30;;;;;;;-143.84;40.34;45030.03;5069190;28;20440;-74
2022/10/22 09:17:34;;;;;;;7.23;3.30;;;;;;;-143.84;39.72;45031.94;5072367;28;20553;-74
2022/10/22 09:20:09;;;;;;;8.73;2.90;;;;;;;-143.84;40.00;45024.31;5073121;28;20444;-74
2022/10/22 09:22:43;;;;;;;15.40;4.20;;;;;;;-143.84;39.69;45054.78;5072252;28;20438;-74
2022/10/22 09:25:19;;;;;;;5.83;3.37;;;;;;;-143.84;40.65;45031.94;5072754;28;20956;-74
2022/10/22 09:27:47;;;;;;;16.03;2.70;;;;;;;-143.84;41.55;45050.97;5072224;28;20475;-74
2022/10/22 09:30:17;;;;;;;5.80;3.27;;;;;;;-143.84;43.07;45052.88;5072255;28;20938;-74
2022/10/22 09:32:46;;;;;;;3.67;2.37;;;;;;;-143.84;40.88;45070.00;5072733;28;20435;-74
2022/10/22 09:35:15;;;;;;;5.07;3.20;;;;;;;-143.84;43.52;45054.78;5072424;28;20448;-74
2022/10/22 09:37:50;;;;;;;11.30;4.10;;;;;;;-143.84;46.56;45060.50;5072702;28;20473;-74
2022/10/22 09:40:18;;;;;;;6.23;3.10;;;;;;;-143.84;45.00;45052.88;5072321;28;20433;-74
2022/10/22 09:42:46;;;;;;;9.63;2.70;;;;;;;-143.84;44.19;45049.06;5072315;28;20535;-74
2022/10/22 09:45:19;;;;;;;6.37;3.37;;;;;;;-143.84;44.44;45070.00;5072341;28;20440;-74
2022/10/22 09:47:49;;;;;;;3.93;2.93;;;;;;;-143.84;46.63;45068.13;5072143;28;20436;-74
2022/10/22 09:50:25;;;;;;;5.50;3.30;;;;;;;-143.84;48.91;45060.50;5072079;28;20880;-74
2022/10/22 09:53:00;;;;;;;4.87;3.03;;;;;;;-143.84;49.48;45066.22;5072047;28;20447;-74
2022/10/22 09:55:28;;;;;;;7.63;2.83;;;;;;;-143.84;49.18;45073.81;5071999;28;20445;-74
2022/10/22 09:57:56;;;;;;;6.50;3.70;;;;;;;-143.84;50.22;45052.88;5072135;28;20536;-74
2022/10/22 10:00:25;;;;;;;6.43;3.57;;;;;;;-143.84;48.90;45056.69;5072012;28;20458;-74
2022/10/22 10:02:57;;;;;;;8.10;3.67;;;;;;;-143.84;50.88;45075.72;5071394;28;20446;-74
2022/10/22 10:05:31;;;;;;;6.13;3.47;;;;;;;-143.84;51.64;45068.13;5072006;28;20822;-74
2022/10/22 10:08:00;;;;;;;3.93;3.10;;;;;;;-143.84;50.54;45081.44;5071602;28;20445;-74
2022/10/22 10:10:46;;;;;;;12.73;3.40;;;;;;;-143.84;53.20;45064.31;5072054;28;20439;-74
2022/10/22 10:13:37;;;;;;;11.87;3.73;;;;;;;-143.84;54.05;45054.78;5071794;28;20431;-74
2022/10/22 10:16:13;;;;;;;9.47;2.80;;;;;;;-143.84;51.66;45052.88;5071881;28;20484;-74
2022/10/22 10:18:54;;;;;;;17.60;3.87;;;;;;;-143.84;52.33;45043.34;5071541;28;20425;-74
2022/10/22 10:21:30;;;;;;;13.87;3.20;;;;;;;-143.84;53.92;45071.91;5071395;28;20945;-74
2022/10/22 10:24:09;;;;;;;4.73;2.97;;;;;;;-143.84;53.89;45062.41;5076051;28;20441;-74
2022/10/22 10:26:44;;;;;;;8.93;3.10;;;;;;;-143.84;55.99;45064.31;5091048;28;20443;-74
2022/10/22 10:29:24;;;;;;;4.20;3.80;;;;;;;-143.84;55.11;45066.22;5091688;28;20526;-74
2022/10/22 10:32:10;;;;;;;6.00;3.23;;;;;;;-143.84;56.25;45092.88;5091933;28;20497;-74
2022/10/22 10:34:45;;;;;;;8.47;4.17;;;;;;;-143.84;58.43;45085.25;5074038;28;20439;-70
2022/10/22 10:37:22;;;;;;;6.90;3.57;;;;;;;-143.84;58.78;45092.88;5076284;28;20456;-72
2022/10/22 10:40:14;;;;;;;13.27;3.03;;;;;;;-143.84;60.21;45100.47;5079475;28;20432;-72
2022/10/22 10:42:46;;;;;;;7.10;4.03;;;;;;;-143.84;60.89;45075.72;5070481;28;20527;-71
2022/10/22 10:45:18;;;;;;;13.23;3.67;;;;;;;-143.84;57.85;45079.53;5052481;28;21033;-72
2022/10/22 10:48:07;;;;;;;10.33;3.50;;;;;;;-143.84;58.30;45056.69;5070437;28;20442;-72
2022/10/22 10:50:49;;;;;;;3.63;3.13;;;;;;;-143.84;59.99;45085.25;5070756;28;21088;-72
2022/10/22 10:53:27;;;;;;;9.97;3.90;;;;;;;-143.84;59.98;45043.34;5070390;28;20444;-72
2022/10/22 10:56:02;;;;;;;11.53;4.40;;;;;;;-143.84;60.44;45064.31;5070330;28;21241;-72
2022/10/22 10:58:38;;;;;;;8.30;3.70;;;;;;;-143.84;61.83;45113.81;5070584;28;20531;-72
2022/10/22 11:01:15;;;;;;;3.83;3.50;;;;;;;-143.84;62.83;45083.34;5070372;28;20506;-71
2022/10/22 11:04:19;;;;;;;5.20;3.20;;;;;;;-143.84;61.86;45070.00;5070525;28;20440;-72
2022/10/22 11:06:49;;;;;;;10.17;4.00;;;;;;;-143.84;62.45;45070.00;5023191;28;20439;-71
2022/10/22 11:09:25;;;;;;;10.60;3.63;;;;;;;-143.84;61.14;45075.72;5070506;28;20440;-71
2022/10/22 11:11:55;;;;;;;8.50;3.70;;;;;;;-143.84;62.00;45090.97;5070337;28;20441;-71
2022/10/22 11:14:29;;;;;;;4.73;3.30;;;;;;;-143.84;61.82;45096.66;5070091;28;20506;-72
2022/10/22 11:17:01;;;;;;;3.53;3.23;;;;;;;-143.84;62.66;45079.53;5070356;28;20476;-72
2022/10/22 11:19:37;;;;;;;11.50;3.80;;;;;;;-143.84;60.32;45068.13;5070358;28;20508;-71
2022/10/22 11:22:11;;;;;;;6.90;3.23;;;;;;;-143.84;60.67;45066.22;5070090;28;20444;-71
2022/10/22 11:24:49;;;;;;;4.80;3.17;;;;;;;-143.84;60.22;45081.44;5070208;28;20438;-71
2022/10/22 11:27:25;;;;;;;14.70;3.40;;;;;;;-143.84;60.69;45060.50;5070257;28;20806;-71
2022/10/22 11:29:59;;;;;;;6.80;3.77;;;;;;;-143.84;61.54;45073.81;5070036;28;20796;-71
2022/10/22 11:32:28;;;;;;;9.23;4.00;;;;;;;-143.84;61.36;45096.66;5069917;28;20459;-72